createdAt,value
2022-12-18T00:01:41.528Z,42.28
2022-12-18T00:03:49.741Z,46.65
2022-12-18T00:05:57.754Z,48.58
2022-12-18T00:08:09.043Z,43.20
2022-12-18T00:10:20.004Z,49.22
2022-12-18T00:12:30.727Z,45.78
2022-12-18T00:14:38.797Z,45.70
2022-12-18T00:16:50.929Z,44.28
2022-12-18T00:19:03.768Z,45.38
2022-12-18T00:21:13.977Z,45.45
2022-12-18T00:23:22.125Z,47.63
2022-12-18T00:25:30.538Z,44.97
2022-12-18T00:27:41.322Z,47.72
2022-12-18T00:29:49.440Z,49.55
2022-12-18T00:31:57.297Z,42.20
2022-12-18T00:34:06.369Z,47.22
2022-12-18T00:36:16.193Z,46.40
2022-12-18T00:38:24.699Z,48.47
2022-12-18T00:40:36.385Z,44.13
2022-12-18T00:42:59.456Z,49.88
2022-12-18T00:45:12.540Z,43.42
2022-12-18T00:47:21.464Z,47.25
2022-12-18T00:49:29.462Z,48.08
2022-12-18T00:51:37.678Z,42.80
2022-12-18T00:53:45.626Z,43.88
2022-12-18T00:55:53.595Z,42.05
2022-12-18T00:58:04.267Z,46.67
2022-12-18T01:00:15.017Z,43.70
2022-12-18T01:02:23.420Z,44.65
2022-12-18T01:04:31.570Z,42.35
2022-12-18T01:06:39.827Z,43.67
2022-12-18T01:08:48.551Z,44.05
2022-12-18T01:10:56.651Z,43.47
2022-12-18T01:13:07.638Z,43.80
2022-12-18T01:15:17.996Z,39.58
2022-12-18T01:17:26.074Z,42.17
2022-12-18T01:19:35.042Z,41.83
2022-12-18T01:21:43.039Z,42.30
2022-12-18T01:23:55.004Z,40.95
2022-12-18T01:26:09.565Z,39.58
2022-12-18T01:28:20.213Z,42.15
2022-12-18T01:30:28.003Z,38.35
2022-12-18T01:32:36.119Z,40.65
2022-12-18T01:34:44.056Z,38.58
2022-12-18T01:36:53.267Z,37.38
2022-12-18T01:39:03.186Z,40.05
2022-12-18T01:41:12.616Z,42.28
2022-12-18T01:43:23.179Z,38.90
2022-12-18T01:45:32.289Z,39.70
2022-12-18T01:47:43.486Z,38.90
2022-12-18T01:49:54.911Z,37.30
2022-12-18T01:52:02.867Z,38.25
2022-12-18T01:54:10.891Z,35.35
2022-12-18T01:56:20.324Z,37.28
2022-12-18T01:58:36.641Z,38.40
2022-12-18T02:00:45.109Z,33.92
2022-12-18T02:02:55.884Z,38.85
2022-12-18T02:05:04.963Z,38.38
2022-12-18T02:07:20.093Z,37.88
2022-12-18T02:09:52.122Z,36.58
2022-12-18T02:12:09.563Z,35.72
2022-12-18T02:14:48.257Z,35.72
2022-12-18T02:17:03.728Z,34.85
2022-12-18T02:19:30.815Z,34.30
2022-12-18T02:21:51.307Z,36.17
2022-12-18T02:24:15.993Z,33.95
2022-12-18T02:26:34.649Z,34.92
2022-12-18T02:28:46.520Z,37.95
2022-12-18T02:30:58.580Z,36.30
2022-12-18T02:33:10.405Z,36.58
2022-12-18T02:35:26.027Z,35.80
2022-12-18T02:37:38.457Z,37.55
2022-12-18T02:39:50.483Z,35.95
2022-12-18T02:42:03.440Z,36.85
2022-12-18T02:44:14.410Z,36.05
2022-12-18T02:46:32.681Z,32.10
2022-12-18T02:48:44.338Z,35.80
2022-12-18T02:51:03.584Z,35.65
2022-12-18T02:53:21.079Z,36.97
2022-12-18T02:55:45.934Z,35.45
2022-12-18T02:58:07.262Z,34.85
2022-12-18T03:00:23.620Z,36.22
2022-12-18T03:02:39.976Z,39.80
2022-12-18T03:04:55.167Z,34.83
2022-12-18T03:07:09.556Z,35.00
2022-12-18T03:09:21.907Z,32.00
2022-12-18T03:11:45.636Z,31.70
2022-12-18T03:14:01.091Z,34.83
2022-12-18T03:16:12.135Z,36.20
2022-12-18T03:18:24.465Z,34.10
2022-12-18T03:20:36.728Z,32.63
2022-12-18T03:22:48.994Z,34.13
2022-12-18T03:25:00.445Z,34.17
2022-12-18T03:27:13.065Z,32.58
2022-12-18T03:29:31.899Z,33.97
2022-12-18T03:31:44.788Z,35.67
2022-12-18T03:33:58.928Z,33.78
2022-12-18T03:36:15.470Z,32.00
2022-12-18T03:38:23.633Z,32.15
2022-12-18T03:40:43.581Z,32.13
2022-12-18T03:42:56.080Z,34.13
2022-12-18T03:45:15.393Z,31.98
2022-12-18T03:47:31.735Z,32.45
2022-12-18T03:49:50.899Z,33.67
2022-12-18T03:52:07.404Z,34.38
2022-12-18T03:54:16.989Z,31.90
2022-12-18T03:56:36.594Z,32.67
2022-12-18T03:58:56.028Z,32.17
2022-12-18T04:01:16.100Z,34.53
2022-12-18T04:03:26.992Z,32.90
2022-12-18T04:05:38.682Z,30.10
2022-12-18T04:07:51.080Z,33.33
2022-12-18T04:10:03.578Z,34.50
2022-12-18T04:12:13.217Z,31.75
2022-12-18T04:14:22.113Z,29.73
2022-12-18T04:16:37.347Z,30.92
2022-12-18T04:18:47.492Z,26.42
2022-12-18T04:20:56.353Z,31.30
2022-12-18T04:23:04.548Z,30.38
2022-12-18T04:25:15.961Z,28.02
2022-12-18T04:27:36.154Z,31.75
2022-12-18T04:29:46.374Z,32.10
2022-12-18T04:31:56.860Z,30.02
2022-12-18T04:34:07.330Z,25.30
2022-12-18T04:36:29.862Z,30.88
2022-12-18T04:38:37.694Z,29.55
2022-12-18T04:40:53.132Z,34.53
2022-12-18T04:43:07.429Z,33.25
2022-12-18T04:45:15.432Z,41.08
2022-12-18T04:47:25.995Z,31.95
2022-12-18T04:49:33.960Z,35.15
2022-12-18T04:51:41.769Z,35.03
2022-12-18T04:53:49.690Z,34.45
2022-12-18T04:56:06.897Z,37.35
2022-12-18T04:58:14.787Z,26.63
2022-12-18T05:00:23.066Z,29.95
2022-12-18T05:02:33.748Z,37.85
2022-12-18T05:04:41.757Z,31.15
2022-12-18T05:06:49.724Z,28.45
2022-12-18T05:08:57.764Z,28.40
2022-12-18T05:11:08.716Z,28.60
2022-12-18T05:13:16.607Z,27.20
2022-12-18T05:15:24.623Z,26.80
2022-12-18T05:17:35.173Z,27.40
2022-12-18T05:19:43.107Z,25.42
2022-12-18T05:21:53.742Z,26.70
2022-12-18T05:24:01.888Z,26.17
2022-12-18T05:26:10.752Z,26.60
2022-12-18T05:28:18.811Z,26.05
2022-12-18T05:30:26.759Z,25.70
2022-12-18T05:32:37.290Z,26.45
2022-12-18T05:34:45.424Z,26.65
2022-12-18T05:36:53.652Z,27.95
2022-12-18T05:39:01.620Z,27.05
2022-12-18T05:41:11.198Z,28.15
2022-12-18T05:43:45.089Z,27.23
2022-12-18T05:45:53.999Z,26.98
2022-12-18T05:48:06.314Z,26.95
2022-12-18T05:50:14.293Z,28.83
2022-12-18T05:52:22.117Z,28.98
2022-12-18T05:54:32.139Z,25.90
2022-12-18T05:56:44.144Z,28.25
2022-12-18T05:58:55.754Z,30.58
2022-12-18T06:01:12.517Z,29.02
2022-12-18T06:03:23.345Z,28.30
2022-12-18T06:05:31.807Z,29.80
2022-12-18T06:07:39.709Z,30.45
2022-12-18T06:09:48.034Z,29.35
2022-12-18T06:11:56.550Z,28.77
2022-12-18T06:14:04.602Z,26.63
2022-12-18T06:16:15.285Z,26.85
2022-12-18T06:18:26.143Z,26.45
2022-12-18T06:20:34.219Z,27.33
2022-12-18T06:22:45.147Z,25.70
2022-12-18T06:24:53.332Z,24.10
2022-12-18T06:27:01.164Z,28.58
2022-12-18T06:29:09.244Z,28.77
2022-12-18T06:31:17.411Z,26.45
2022-12-18T06:33:30.865Z,27.58
2022-12-18T06:35:38.816Z,25.38
2022-12-18T06:37:46.953Z,26.80
2022-12-18T06:39:54.899Z,28.38
2022-12-18T06:42:02.682Z,29.58
2022-12-18T06:44:10.576Z,29.58
2022-12-18T06:46:19.447Z,27.55
2022-12-18T06:48:30.077Z,29.45
2022-12-18T06:50:38.348Z,27.25
2022-12-18T06:52:51.856Z,30.08
2022-12-18T06:54:59.683Z,28.67
2022-12-18T06:57:07.626Z,28.73
2022-12-18T06:59:16.682Z,26.52
2022-12-18T07:01:25.267Z,30.08
2022-12-18T07:03:36.160Z,28.33
2022-12-18T07:05:44.696Z,26.52
2022-12-18T07:07:52.480Z,27.17
2022-12-18T07:10:00.727Z,26.88
2022-12-18T07:12:10.092Z,25.25
2022-12-18T07:14:17.967Z,26.63
2022-12-18T07:16:26.405Z,27.45
2022-12-18T07:18:37.100Z,27.50
2022-12-18T07:20:46.912Z,28.17
2022-12-18T07:22:56.436Z,27.95
2022-12-18T07:25:04.374Z,26.00
2022-12-18T07:27:12.270Z,27.60
2022-12-18T07:29:20.935Z,27.38
2022-12-18T07:31:29.966Z,27.17
2022-12-18T07:33:40.885Z,28.67
2022-12-18T07:35:49.214Z,28.60
2022-12-18T07:37:57.133Z,27.02
2022-12-18T07:40:14.370Z,29.38
2022-12-18T07:42:34.761Z,27.27
2022-12-18T07:44:42.625Z,40.00
2022-12-18T07:46:50.427Z,37.53
2022-12-18T07:49:00.781Z,33.03
2022-12-18T07:51:12.779Z,35.92
2022-12-18T07:53:20.673Z,51.50
2022-12-18T07:55:28.511Z,51.10
2022-12-18T07:57:57.624Z,51.83
2022-12-18T08:00:05.757Z,42.10
2022-12-18T08:02:20.270Z,39.85
2022-12-18T08:04:38.565Z,37.85
2022-12-18T08:06:48.256Z,37.10
2022-12-18T08:08:57.303Z,33.25
2022-12-18T08:11:05.544Z,35.38
2022-12-18T08:13:13.625Z,29.38
2022-12-18T08:15:27.261Z,31.80
2022-12-18T08:17:35.391Z,30.63
2022-12-18T08:19:46.627Z,29.67
2022-12-18T08:21:54.971Z,30.15
2022-12-18T08:24:04.871Z,31.58
2022-12-18T08:26:13.985Z,33.17
2022-12-18T08:28:22.002Z,34.20
2022-12-18T08:30:29.841Z,31.05
2022-12-18T08:32:38.553Z,33.22
2022-12-18T08:34:49.981Z,32.95
2022-12-18T08:36:58.051Z,32.55
2022-12-18T08:39:06.766Z,31.15
2022-12-18T08:41:16.921Z,31.60
2022-12-18T08:43:37.781Z,31.27
2022-12-18T08:45:46.348Z,30.17
2022-12-18T08:47:54.580Z,32.97
2022-12-18T08:50:05.986Z,31.63
2022-12-18T08:52:16.865Z,32.90
2022-12-18T08:54:26.385Z,31.15
2022-12-18T08:56:35.881Z,34.30
2022-12-18T08:58:44.937Z,33.72
2022-12-18T09:00:52.746Z,33.25
2022-12-18T09:03:00.812Z,33.80
2022-12-18T09:05:11.754Z,33.67
2022-12-18T09:07:19.877Z,37.70
2022-12-18T09:09:28.068Z,38.83
2022-12-18T09:11:37.486Z,33.40
2022-12-18T09:13:45.347Z,35.55
2022-12-18T09:15:55.564Z,35.17
2022-12-18T09:18:03.802Z,35.65
2022-12-18T09:20:15.127Z,35.10
2022-12-18T09:22:22.979Z,38.92
2022-12-18T09:25:03.065Z,39.13
2022-12-18T09:27:11.471Z,40.35
2022-12-18T09:29:21.693Z,42.95
2022-12-18T09:31:29.769Z,41.30
2022-12-18T09:33:38.099Z,35.72
2022-12-18T09:35:49.797Z,31.23
2022-12-18T09:37:57.555Z,32.35
2022-12-18T09:40:07.857Z,35.60
2022-12-18T09:42:23.807Z,35.20
2022-12-18T09:44:37.752Z,34.47
2022-12-18T09:46:54.686Z,34.55
2022-12-18T09:49:06.076Z,30.95
2022-12-18T09:51:20.636Z,30.23
2022-12-18T09:53:32.139Z,29.20
2022-12-18T09:55:44.100Z,32.00
2022-12-18T09:57:57.410Z,31.95
2022-12-18T10:00:13.179Z,29.10
2022-12-18T10:02:25.922Z,30.02
2022-12-18T10:04:37.696Z,29.80
2022-12-18T10:06:54.184Z,31.38
2022-12-18T10:09:07.951Z,31.42
2022-12-18T10:11:44.843Z,33.10
2022-12-18T10:14:00.400Z,34.58
2022-12-18T10:16:17.254Z,32.20
2022-12-18T10:18:39.793Z,31.58
2022-12-18T10:20:52.576Z,31.75
2022-12-18T10:23:14.138Z,29.10
2022-12-18T10:25:27.859Z,29.95
2022-12-18T10:27:36.006Z,29.90
2022-12-18T10:29:44.928Z,28.92
2022-12-18T10:31:52.996Z,30.60
2022-12-18T10:34:01.048Z,29.10
2022-12-18T10:36:11.840Z,32.75
2022-12-18T10:38:31.296Z,29.85
2022-12-18T10:40:54.233Z,29.90
2022-12-18T10:43:14.451Z,30.80
2022-12-18T10:45:22.394Z,28.63
2022-12-18T10:47:30.525Z,29.60
2022-12-18T10:49:39.334Z,30.33
2022-12-18T10:51:47.400Z,31.48
2022-12-18T10:54:03.248Z,32.03
2022-12-18T10:56:15.639Z,30.50
2022-12-18T10:58:30.101Z,32.30
2022-12-18T11:00:38.400Z,35.03
2022-12-18T11:02:46.459Z,31.05
2022-12-18T11:04:56.052Z,30.38
2022-12-18T11:07:05.894Z,30.38
2022-12-18T11:09:24.835Z,31.00
2022-12-18T11:11:33.949Z,32.75
2022-12-18T11:13:42.282Z,30.10
2022-12-18T11:15:50.932Z,31.00
2022-12-18T11:18:00.528Z,31.00
2022-12-18T11:20:23.650Z,32.03
2022-12-18T11:22:33.291Z,33.10
2022-12-18T11:24:49.900Z,31.40
2022-12-18T11:27:10.724Z,31.67
2022-12-18T11:29:22.406Z,34.13
2022-12-18T11:31:32.897Z,32.40
2022-12-18T11:33:58.372Z,34.28
2022-12-18T11:36:13.524Z,34.38
2022-12-18T11:38:30.077Z,33.35
2022-12-18T11:40:44.326Z,34.50
2022-12-18T11:43:02.141Z,35.85
2022-12-18T11:45:31.731Z,32.40
2022-12-18T11:47:47.995Z,31.40
2022-12-18T11:49:56.686Z,32.05
2022-12-18T11:52:10.992Z,32.53
2022-12-18T11:54:20.150Z,31.10
2022-12-18T11:56:48.090Z,31.95
2022-12-18T11:59:06.438Z,34.53
2022-12-18T12:01:22.579Z,32.67
2022-12-18T12:03:50.987Z,31.90
2022-12-18T12:06:15.685Z,30.83
2022-12-18T12:08:35.178Z,31.95
2022-12-18T12:10:56.450Z,29.88
2022-12-18T12:13:23.316Z,30.60
2022-12-18T12:15:43.780Z,32.70
2022-12-18T12:17:58.358Z,31.75
2022-12-18T12:20:15.371Z,29.85
2022-12-18T12:22:31.731Z,32.10
2022-12-18T12:24:55.606Z,28.77
2022-12-18T12:27:13.654Z,29.73
2022-12-18T12:29:37.944Z,29.77
2022-12-18T12:32:02.433Z,29.48
2022-12-18T12:34:19.761Z,29.23
2022-12-18T12:36:40.465Z,30.15
2022-12-18T12:38:57.859Z,30.83
2022-12-18T12:41:30.469Z,29.00
2022-12-18T12:43:49.495Z,29.13
2022-12-18T12:46:07.593Z,28.33
2022-12-18T12:48:25.490Z,28.23
2022-12-18T12:50:38.134Z,29.63
2022-12-18T12:52:49.832Z,29.15
2022-12-18T12:54:58.607Z,27.85
2022-12-18T12:57:13.068Z,28.90
2022-12-18T12:59:36.589Z,28.00
2022-12-18T13:01:59.177Z,28.88
2022-12-18T13:04:19.452Z,29.00
2022-12-18T13:06:44.549Z,35.28
2022-12-18T13:08:59.048Z,36.90
2022-12-18T13:11:19.807Z,37.83
2022-12-18T13:13:28.195Z,39.90
2022-12-18T13:15:42.066Z,41.78
2022-12-18T13:17:53.072Z,37.22
2022-12-18T13:20:10.994Z,32.33
2022-12-18T13:22:29.864Z,36.13
2022-12-18T13:24:38.038Z,36.15
2022-12-18T13:26:46.175Z,37.50
2022-12-18T13:28:56.891Z,38.17
2022-12-18T13:31:06.147Z,39.53
2022-12-18T13:36:31.421Z,32.65
2022-12-18T13:38:40.845Z,29.23
2022-12-18T13:41:00.226Z,29.77
2022-12-18T13:43:24.945Z,30.75
2022-12-18T13:45:49.345Z,29.40
2022-12-18T13:47:57.743Z,27.58
2022-12-18T13:50:19.612Z,29.33
2022-12-18T13:52:31.714Z,30.63
2022-12-18T13:54:41.327Z,29.50
2022-12-18T13:56:53.251Z,27.50
2022-12-18T13:59:17.248Z,29.60
2022-12-18T14:01:29.931Z,29.80
2022-12-18T14:03:37.997Z,30.92
2022-12-18T14:05:49.797Z,28.55
2022-12-18T14:08:02.761Z,28.65
2022-12-18T14:10:42.249Z,26.15
2022-12-18T14:13:03.281Z,24.70
2022-12-18T14:15:25.975Z,26.50
2022-12-18T14:17:35.754Z,25.52
2022-12-18T14:19:49.285Z,29.33
2022-12-18T14:21:59.955Z,30.05
2022-12-18T14:24:19.506Z,31.15
2022-12-18T14:26:30.604Z,31.95
2022-12-18T14:28:49.698Z,32.03
2022-12-18T14:31:01.242Z,28.60
2022-12-18T14:33:16.243Z,29.52
2022-12-18T14:35:25.468Z,31.67
2022-12-18T14:37:37.844Z,30.05
2022-12-18T14:39:57.692Z,29.67
2022-12-18T14:42:06.204Z,31.05
2022-12-18T14:44:16.461Z,29.60
2022-12-18T14:46:38.820Z,31.77
2022-12-18T14:48:51.386Z,31.58
2022-12-18T14:51:02.588Z,32.65
2022-12-18T14:53:24.852Z,31.63
2022-12-18T14:55:33.554Z,32.50
2022-12-18T14:57:44.483Z,33.22
2022-12-18T14:59:53.119Z,33.83
2022-12-18T15:02:09.035Z,32.65
2022-12-18T15:04:30.052Z,32.65
2022-12-18T15:06:41.010Z,32.17
2022-12-18T15:08:51.770Z,36.67
2022-12-18T15:11:00.440Z,36.10
2022-12-18T15:13:12.966Z,36.20
2022-12-18T15:15:51.552Z,37.70
2022-12-18T15:18:09.435Z,35.58
2022-12-18T15:20:17.574Z,36.97
2022-12-18T15:22:31.544Z,38.33
2022-12-18T15:24:44.457Z,34.47
2022-12-18T15:26:54.827Z,36.20
2022-12-18T15:29:04.433Z,37.33
2022-12-18T15:31:29.812Z,37.72
2022-12-18T15:33:41.480Z,40.35
2022-12-18T15:35:49.568Z,38.05
2022-12-18T15:37:59.034Z,39.78
2022-12-18T15:40:18.884Z,39.28
2022-12-18T15:42:40.611Z,37.20
2022-12-18T15:44:51.966Z,37.38
2022-12-18T15:47:04.481Z,41.20
2022-12-18T15:49:12.298Z,40.10
2022-12-18T15:51:23.996Z,41.80
2022-12-18T15:53:36.097Z,40.05
2022-12-18T15:56:10.658Z,43.17
2022-12-18T15:58:18.732Z,41.22
2022-12-18T16:00:27.175Z,41.53
2022-12-18T16:02:36.082Z,44.05
2022-12-18T16:04:50.101Z,39.50
2022-12-18T16:07:18.125Z,38.60
2022-12-18T16:09:29.732Z,42.35
2022-12-18T16:11:43.246Z,38.47
2022-12-18T16:13:51.554Z,36.72
2022-12-18T16:15:59.587Z,35.60
2022-12-18T16:18:08.066Z,35.15
2022-12-18T16:20:17.914Z,32.42
2022-12-18T16:22:28.089Z,31.83
2022-12-18T16:24:37.758Z,30.15
2022-12-18T16:26:50.061Z,30.77
2022-12-18T16:28:58.239Z,29.20
2022-12-18T16:31:06.074Z,31.92
2022-12-18T16:33:14.480Z,30.83
2022-12-18T16:35:30.632Z,29.58
2022-12-18T16:37:41.009Z,31.05
2022-12-18T16:39:49.056Z,28.23
2022-12-18T16:42:00.023Z,29.02
2022-12-18T16:44:09.688Z,24.88
2022-12-18T16:46:17.675Z,27.10
2022-12-18T16:48:28.548Z,28.73
2022-12-18T16:50:41.180Z,28.85
2022-12-18T16:52:49.529Z,28.65
2022-12-18T16:54:58.665Z,27.60
2022-12-18T16:57:11.632Z,24.67
2022-12-18T16:59:19.826Z,26.23
2022-12-18T17:01:30.732Z,25.08
2022-12-18T17:03:39.121Z,24.80
2022-12-18T17:05:53.079Z,25.80
2022-12-18T17:08:02.412Z,22.70
2022-12-18T17:10:10.987Z,24.77
2022-12-18T17:12:25.155Z,25.08
2022-12-18T17:14:33.026Z,26.38
2022-12-18T17:16:40.791Z,25.02
2022-12-18T17:18:48.756Z,25.52
2022-12-18T17:20:56.655Z,25.40
2022-12-18T17:23:04.555Z,25.35
2022-12-18T17:25:15.537Z,25.55
2022-12-18T17:27:25.968Z,28.27
2022-12-18T17:29:34.335Z,28.23
2022-12-18T17:31:43.910Z,28.83
2022-12-18T17:33:52.644Z,27.77
2022-12-18T17:36:03.584Z,29.23
2022-12-18T17:38:12.155Z,29.23
2022-12-18T17:40:20.355Z,29.52
2022-12-18T17:42:31.121Z,30.25
2022-12-18T17:44:39.414Z,31.42
2022-12-18T17:46:48.137Z,32.45
2022-12-18T17:48:58.709Z,31.05
2022-12-18T17:51:08.901Z,33.88
2022-12-18T17:53:16.928Z,31.83
2022-12-18T17:55:25.926Z,34.17
2022-12-18T17:57:38.623Z,35.03
2022-12-18T17:59:46.697Z,34.65
2022-12-18T18:01:54.977Z,37.47
2022-12-18T18:04:04.616Z,33.38
2022-12-18T18:06:13.117Z,36.20
2022-12-18T18:08:21.378Z,35.92
2022-12-18T18:10:29.242Z,33.95
2022-12-18T18:12:54.217Z,37.00
2022-12-18T18:15:02.325Z,34.03
2022-12-18T18:17:10.251Z,34.15
2022-12-18T18:19:20.599Z,35.00
2022-12-18T18:21:31.744Z,34.70
2022-12-18T18:23:40.894Z,33.47
2022-12-18T18:25:57.724Z,35.17
2022-12-18T18:28:09.006Z,36.03
2022-12-18T18:30:17.550Z,35.55
2022-12-18T18:32:27.680Z,33.58
2022-12-18T18:34:36.922Z,35.72
2022-12-18T18:36:45.577Z,35.75
2022-12-18T18:38:53.939Z,31.45
2022-12-18T18:41:03.091Z,35.42
2022-12-18T18:43:13.830Z,34.03
2022-12-18T18:45:22.125Z,34.95
2022-12-18T18:47:32.611Z,34.13
2022-12-18T18:49:44.354Z,34.50
2022-12-18T18:51:53.606Z,33.35
2022-12-18T18:54:02.727Z,34.95
2022-12-18T18:58:42.903Z,35.25
2022-12-18T19:00:58.005Z,35.00
2022-12-18T19:03:06.943Z,33.75
2022-12-18T19:05:15.008Z,33.95
2022-12-18T19:07:30.755Z,35.05
2022-12-18T19:09:39.111Z,37.65
2022-12-18T19:11:59.398Z,37.90
2022-12-18T19:14:13.028Z,35.60
2022-12-18T19:16:21.402Z,34.80
2022-12-18T19:18:31.852Z,35.35
2022-12-18T19:20:42.656Z,37.00
2022-12-18T19:22:55.991Z,34.10
2022-12-18T19:25:04.282Z,36.38
2022-12-18T19:27:12.696Z,33.42
2022-12-18T19:29:27.548Z,32.35
2022-12-18T19:31:37.333Z,33.95
2022-12-18T19:33:49.613Z,30.77
2022-12-18T19:36:01.191Z,30.63
2022-12-18T19:38:13.496Z,30.27
2022-12-18T19:40:22.641Z,31.38
2022-12-18T19:42:35.354Z,34.08
2022-12-18T19:44:46.186Z,29.83
2022-12-18T19:46:59.742Z,30.35
2022-12-18T19:49:17.370Z,31.98
2022-12-18T19:51:29.866Z,33.03
2022-12-18T19:53:39.204Z,30.75
2022-12-18T19:55:47.351Z,35.40
2022-12-18T19:57:57.259Z,37.30
2022-12-18T20:00:15.431Z,40.60
2022-12-18T20:02:26.448Z,42.20
2022-12-18T20:04:35.488Z,44.53
2022-12-18T20:06:51.094Z,43.45
2022-12-18T20:09:01.779Z,40.05
2022-12-18T20:11:10.680Z,37.25
2022-12-18T20:13:18.956Z,34.50
2022-12-18T20:15:29.495Z,31.40
2022-12-18T20:17:41.680Z,33.28
2022-12-18T20:19:53.374Z,34.97
2022-12-18T20:22:03.800Z,34.15
2022-12-18T20:24:12.480Z,35.53
2022-12-18T20:26:20.731Z,31.80
2022-12-18T20:28:29.320Z,32.22
2022-12-18T20:30:40.182Z,31.83
2022-12-18T20:32:48.381Z,30.42
2022-12-18T20:34:56.279Z,28.40
2022-12-18T20:37:04.835Z,29.10
2022-12-18T20:39:13.542Z,29.73
2022-12-18T20:41:24.679Z,30.13
2022-12-18T20:43:33.222Z,27.83
2022-12-18T20:45:43.949Z,29.45
2022-12-18T20:47:59.740Z,27.08
2022-12-18T20:50:09.416Z,30.10
2022-12-18T20:52:17.609Z,28.63
2022-12-18T20:54:30.080Z,28.73
2022-12-18T20:56:38.632Z,29.95
2022-12-18T20:58:47.401Z,29.08
2022-12-18T21:01:11.439Z,28.20
2022-12-18T21:03:20.591Z,29.90
2022-12-18T21:05:29.487Z,30.05
2022-12-18T21:07:37.570Z,28.45
2022-12-18T21:09:45.515Z,29.08
2022-12-18T21:12:05.924Z,30.38
2022-12-18T21:14:17.543Z,29.98
2022-12-18T21:16:28.589Z,30.95
2022-12-18T21:18:36.870Z,29.38
2022-12-18T21:20:45.284Z,29.10
2022-12-18T21:22:54.007Z,31.92
2022-12-18T21:25:05.325Z,33.15
2022-12-18T21:27:13.124Z,28.42
2022-12-18T21:29:27.516Z,28.55
2022-12-18T21:31:39.412Z,26.88
2022-12-18T21:33:47.279Z,25.60
2022-12-18T21:35:56.290Z,28.42
2022-12-18T21:38:05.813Z,27.55
2022-12-18T21:40:15.138Z,24.55
2022-12-18T21:42:35.350Z,26.00
2022-12-18T21:44:43.866Z,28.67
2022-12-18T21:47:01.555Z,26.45
2022-12-18T21:49:15.022Z,28.00
2022-12-18T21:51:22.969Z,27.23
2022-12-18T21:53:30.817Z,29.20
2022-12-18T21:55:38.567Z,27.77
2022-12-18T21:57:46.378Z,28.15
2022-12-18T21:59:54.423Z,29.30
2022-12-18T22:02:07.316Z,26.23
2022-12-18T22:04:15.930Z,28.67
2022-12-18T22:06:23.760Z,28.63
2022-12-18T22:08:31.619Z,28.20
2022-12-18T22:10:40.253Z,29.05
2022-12-18T22:12:48.935Z,28.98
2022-12-18T22:14:56.797Z,28.08
2022-12-18T22:17:07.260Z,28.17
2022-12-18T22:19:16.631Z,28.38
2022-12-18T22:21:29.502Z,30.25
2022-12-18T22:23:37.862Z,29.10
2022-12-18T22:25:45.835Z,26.25
2022-12-18T22:28:05.883Z,26.70
2022-12-18T22:30:15.674Z,28.20
2022-12-18T22:32:31.361Z,27.45
2022-12-18T22:34:39.642Z,27.05
2022-12-18T22:36:49.464Z,30.17
2022-12-18T22:38:57.458Z,28.27
2022-12-18T22:41:05.624Z,35.13
2022-12-18T22:43:14.095Z,28.58
2022-12-18T22:45:30.039Z,26.02
2022-12-18T22:47:40.882Z,27.08
2022-12-18T22:49:48.998Z,29.30
2022-12-18T22:51:57.539Z,28.50
2022-12-18T22:54:19.594Z,27.50
2022-12-18T22:56:33.772Z,28.35
2022-12-18T22:58:42.211Z,28.70
2022-12-18T23:00:50.462Z,29.13
2022-12-18T23:03:01.383Z,28.20
2022-12-18T23:05:09.955Z,29.25
2022-12-18T23:07:18.567Z,32.20
2022-12-18T23:09:26.518Z,30.95
2022-12-18T23:11:35.919Z,32.42
2022-12-18T23:13:44.086Z,31.92
2022-12-18T23:15:51.927Z,33.40
2022-12-18T23:18:02.988Z,32.63
2022-12-18T23:20:11.930Z,31.35
2022-12-18T23:22:20.159Z,30.05
2022-12-18T23:24:28.453Z,30.05
2022-12-18T23:26:39.474Z,27.55
2022-12-18T23:28:47.291Z,28.92
2022-12-18T23:30:55.708Z,27.98
2022-12-18T23:33:06.276Z,27.15
2022-12-18T23:35:15.629Z,27.33
2022-12-18T23:37:57.002Z,29.83
2022-12-18T23:39:51.921Z,31.02
2022-12-18T23:42:00.134Z,30.70
2022-12-18T23:44:08.290Z,29.45
2022-12-18T23:46:20.066Z,33.63
2022-12-18T23:48:30.635Z,31.33
2022-12-18T23:50:38.605Z,29.10
2022-12-18T23:52:46.405Z,29.80
2022-12-18T23:54:56.055Z,26.98
2022-12-18T23:57:04.465Z,32.45
2022-12-18T23:59:12.815Z,28.80
